sensor_id;sensor_type;location;lat;lon;timestamp;P1;durP1;ratioP1;P2;durP2;ratioP2
27408;SDS011;20413;50.782;7.152;2023-02-01T00:01:35;25.40;;;10.65;;
27408;SDS011;20413;50.782;7.152;2023-02-01T00:04:01;23.63;;;10.52;;
27408;SDS011;20413;50.782;7.152;2023-02-01T00:06:27;22.92;;;11.57;;
27408;SDS011;20413;50.782;7.152;2023-02-01T00:08:53;25.77;;;11.38;;
27408;SDS011;20413;50.782;7.152;2023-02-01T00:11:19;20.17;;;11.13;;
27408;SDS011;20413;50.782;7.152;2023-02-01T00:13:46;26.33;;;11.13;;
27408;SDS011;20413;50.782;7.152;2023-02-01T00:16:13;24.90;;;11.00;;
27408;SDS011;20413;50.782;7.152;2023-02-01T00:18:42;22.15;;;11.05;;
27408;SDS011;20413;50.782;7.152;2023-02-01T00:21:12;21.58;;;10.20;;
27408;SDS011;20413;50.782;7.152;2023-02-01T00:23:38;22.45;;;10.27;;
27408;SDS011;20413;50.782;7.152;2023-02-01T00:26:05;26.70;;;10.45;;
27408;SDS011;20413;50.782;7.152;2023-02-01T00:28:32;22.63;;;10.73;;
27408;SDS011;20413;50.782;7.152;2023-02-01T00:31:02;23.67;;;10.32;;
27408;SDS011;20413;50.782;7.152;2023-02-01T00:33:29;20.67;;;9.90;;
27408;SDS011;20413;50.782;7.152;2023-02-01T00:35:56;25.90;;;10.48;;
27408;SDS011;20413;50.782;7.152;2023-02-01T00:38:22;25.33;;;10.23;;
27408;SDS011;20413;50.782;7.152;2023-02-01T00:40:48;25.92;;;9.65;;
27408;SDS011;20413;50.782;7.152;2023-02-01T00:43:14;21.48;;;9.18;;
27408;SDS011;20413;50.782;7.152;2023-02-01T00:45:40;22.05;;;9.23;;
27408;SDS011;20413;50.782;7.152;2023-02-01T00:48:06;26.73;;;9.38;;
27408;SDS011;20413;50.782;7.152;2023-02-01T00:50:32;22.17;;;8.60;;
27408;SDS011;20413;50.782;7.152;2023-02-01T00:52:58;31.15;;;8.07;;
27408;SDS011;20413;50.782;7.152;2023-02-01T00:55:24;23.67;;;7.93;;
27408;SDS011;20413;50.782;7.152;2023-02-01T00:57:50;25.55;;;7.50;;
27408;SDS011;20413;50.782;7.152;2023-02-01T01:00:16;23.33;;;6.90;;
27408;SDS011;20413;50.782;7.152;2023-02-01T01:02:43;18.05;;;5.82;;
27408;SDS011;20413;50.782;7.152;2023-02-01T01:05:09;22.70;;;7.15;;
27408;SDS011;20413;50.782;7.152;2023-02-01T01:07:35;19.65;;;6.03;;
27408;SDS011;20413;50.782;7.152;2023-02-01T01:10:01;17.38;;;5.65;;
27408;SDS011;20413;50.782;7.152;2023-02-01T01:12:27;15.15;;;5.25;;
27408;SDS011;20413;50.782;7.152;2023-02-01T01:14:53;15.25;;;4.45;;
27408;SDS011;20413;50.782;7.152;2023-02-01T01:17:19;21.98;;;4.60;;
27408;SDS011;20413;50.782;7.152;2023-02-01T01:19:45;13.55;;;5.00;;
27408;SDS011;20413;50.782;7.152;2023-02-01T01:22:11;14.90;;;4.72;;
27408;SDS011;20413;50.782;7.152;2023-02-01T01:24:37;19.25;;;4.43;;
27408;SDS011;20413;50.782;7.152;2023-02-01T01:27:03;14.45;;;4.10;;
27408;SDS011;20413;50.782;7.152;2023-02-01T01:29:29;14.07;;;3.55;;
27408;SDS011;20413;50.782;7.152;2023-02-01T01:31:55;14.43;;;3.60;;
27408;SDS011;20413;50.782;7.152;2023-02-01T01:34:21;16.10;;;4.03;;
27408;SDS011;20413;50.782;7.152;2023-02-01T01:36:47;13.73;;;4.05;;
27408;SDS011;20413;50.782;7.152;2023-02-01T01:39:13;18.25;;;3.90;;
27408;SDS011;20413;50.782;7.152;2023-02-01T01:41:39;17.25;;;3.80;;
27408;SDS011;20413;50.782;7.152;2023-02-01T01:44:06;20.65;;;3.47;;
27408;SDS011;20413;50.782;7.152;2023-02-01T01:46:36;15.27;;;3.13;;
27408;SDS011;20413;50.782;7.152;2023-02-01T01:49:10;17.42;;;3.80;;
27408;SDS011;20413;50.782;7.152;2023-02-01T01:51:44;14.18;;;3.42;;
27408;SDS011;20413;50.782;7.152;2023-02-01T01:54:16;18.42;;;3.83;;
27408;SDS011;20413;50.782;7.152;2023-02-01T01:56:42;11.38;;;3.25;;
27408;SDS011;20413;50.782;7.152;2023-02-01T01:59:09;18.77;;;3.42;;
27408;SDS011;20413;50.782;7.152;2023-02-01T02:01:35;17.23;;;3.75;;
27408;SDS011;20413;50.782;7.152;2023-02-01T02:04:01;20.83;;;3.90;;
27408;SDS011;20413;50.782;7.152;2023-02-01T02:06:34;16.25;;;4.13;;
27408;SDS011;20413;50.782;7.152;2023-02-01T02:09:03;11.82;;;3.30;;
27408;SDS011;20413;50.782;7.152;2023-02-01T02:11:29;12.32;;;3.33;;
27408;SDS011;20413;50.782;7.152;2023-02-01T02:13:55;8.00;;;2.75;;
27408;SDS011;20413;50.782;7.152;2023-02-01T02:16:33;16.83;;;3.40;;
27408;SDS011;20413;50.782;7.152;2023-02-01T02:26:46;11.77;;;3.22;;
27408;SDS011;20413;50.782;7.152;2023-02-01T02:31:54;18.52;;;3.60;;
27408;SDS011;20413;50.782;7.152;2023-02-01T02:34:28;12.90;;;3.60;;
27408;SDS011;20413;50.782;7.152;2023-02-01T02:39:53;18.92;;;4.03;;
27408;SDS011;20413;50.782;7.152;2023-02-01T02:45:19;17.92;;;4.10;;
27408;SDS011;20413;50.782;7.152;2023-02-01T02:48:11;10.07;;;3.58;;
27408;SDS011;20413;50.782;7.152;2023-02-01T02:50:48;17.50;;;4.25;;
27408;SDS011;20413;50.782;7.152;2023-02-01T02:53:35;21.00;;;3.90;;
27408;SDS011;20413;50.782;7.152;2023-02-01T02:56:22;13.68;;;4.50;;
27408;SDS011;20413;50.782;7.152;2023-02-01T02:59:09;17.70;;;4.53;;
27408;SDS011;20413;50.782;7.152;2023-02-01T03:01:54;25.17;;;4.50;;
27408;SDS011;20413;50.782;7.152;2023-02-01T03:04:39;13.15;;;4.90;;
27408;SDS011;20413;50.782;7.152;2023-02-01T03:07:42;18.55;;;4.40;;
27408;SDS011;20413;50.782;7.152;2023-02-01T03:09:57;15.88;;;4.65;;
27408;SDS011;20413;50.782;7.152;2023-02-01T03:12:29;15.07;;;4.68;;
27408;SDS011;20413;50.782;7.152;2023-02-01T03:15:13;17.98;;;4.90;;
27408;SDS011;20413;50.782;7.152;2023-02-01T03:17:40;17.75;;;4.95;;
27408;SDS011;20413;50.782;7.152;2023-02-01T03:20:08;18.17;;;4.65;;
27408;SDS011;20413;50.782;7.152;2023-02-01T03:22:35;20.65;;;5.00;;
27408;SDS011;20413;50.782;7.152;2023-02-01T03:25:08;21.37;;;5.13;;
27408;SDS011;20413;50.782;7.152;2023-02-01T03:27:40;25.33;;;5.05;;
27408;SDS011;20413;50.782;7.152;2023-02-01T03:30:09;24.83;;;5.13;;
27408;SDS011;20413;50.782;7.152;2023-02-01T03:32:37;24.17;;;4.90;;
27408;SDS011;20413;50.782;7.152;2023-02-01T03:35:25;24.77;;;4.63;;
27408;SDS011;20413;50.782;7.152;2023-02-01T03:37:54;21.45;;;4.55;;
27408;SDS011;20413;50.782;7.152;2023-02-01T03:40:22;17.33;;;4.50;;
27408;SDS011;20413;50.782;7.152;2023-02-01T03:42:49;18.67;;;4.45;;
27408;SDS011;20413;50.782;7.152;2023-02-01T03:45:18;18.83;;;4.47;;
27408;SDS011;20413;50.782;7.152;2023-02-01T03:47:48;18.50;;;4.40;;
27408;SDS011;20413;50.782;7.152;2023-02-01T03:50:18;18.23;;;4.50;;
27408;SDS011;20413;50.782;7.152;2023-02-01T03:52:47;20.33;;;4.28;;
27408;SDS011;20413;50.782;7.152;2023-02-01T03:55:15;20.92;;;4.70;;
27408;SDS011;20413;50.782;7.152;2023-02-01T03:57:43;15.73;;;5.10;;
27408;SDS011;20413;50.782;7.152;2023-02-01T04:00:21;14.02;;;3.63;;
27408;SDS011;20413;50.782;7.152;2023-02-01T04:02:47;19.38;;;4.50;;
27408;SDS011;20413;50.782;7.152;2023-02-01T04:05:13;17.80;;;5.25;;
27408;SDS011;20413;50.782;7.152;2023-02-01T04:07:40;15.57;;;3.78;;
27408;SDS011;20413;50.782;7.152;2023-02-01T04:10:06;22.08;;;3.90;;
27408;SDS011;20413;50.782;7.152;2023-02-01T04:12:32;19.83;;;3.90;;
27408;SDS011;20413;50.782;7.152;2023-02-01T04:14:58;25.67;;;4.57;;
27408;SDS011;20413;50.782;7.152;2023-02-01T04:17:24;17.20;;;4.10;;
27408;SDS011;20413;50.782;7.152;2023-02-01T04:19:50;14.93;;;4.50;;
27408;SDS011;20413;50.782;7.152;2023-02-01T04:22:16;18.20;;;4.57;;
27408;SDS011;20413;50.782;7.152;2023-02-01T04:24:42;19.85;;;4.38;;
27408;SDS011;20413;50.782;7.152;2023-02-01T04:27:08;15.52;;;4.20;;
27408;SDS011;20413;50.782;7.152;2023-02-01T04:29:34;22.63;;;4.90;;
27408;SDS011;20413;50.782;7.152;2023-02-01T04:32:00;22.20;;;4.63;;
27408;SDS011;20413;50.782;7.152;2023-02-01T04:34:26;20.25;;;4.78;;
27408;SDS011;20413;50.782;7.152;2023-02-01T04:36:52;23.60;;;5.15;;
27408;SDS011;20413;50.782;7.152;2023-02-01T04:39:18;22.40;;;5.10;;
27408;SDS011;20413;50.782;7.152;2023-02-01T04:41:44;17.85;;;4.45;;
27408;SDS011;20413;50.782;7.152;2023-02-01T04:44:12;19.08;;;5.22;;
27408;SDS011;20413;50.782;7.152;2023-02-01T04:46:39;18.55;;;4.78;;
27408;SDS011;20413;50.782;7.152;2023-02-01T04:49:05;20.67;;;5.18;;
27408;SDS011;20413;50.782;7.152;2023-02-01T04:51:32;21.95;;;5.20;;
27408;SDS011;20413;50.782;7.152;2023-02-01T04:53:58;22.92;;;5.45;;
27408;SDS011;20413;50.782;7.152;2023-02-01T04:56:24;23.70;;;5.43;;
27408;SDS011;20413;50.782;7.152;2023-02-01T04:58:50;25.38;;;5.53;;
27408;SDS011;20413;50.782;7.152;2023-02-01T05:01:16;13.40;;;4.32;;
27408;SDS011;20413;50.782;7.152;2023-02-01T05:03:42;15.45;;;4.40;;
27408;SDS011;20413;50.782;7.152;2023-02-01T05:06:08;13.55;;;4.15;;
27408;SDS011;20413;50.782;7.152;2023-02-01T05:08:34;20.52;;;4.50;;
27408;SDS011;20413;50.782;7.152;2023-02-01T05:11:00;23.02;;;5.63;;
27408;SDS011;20413;50.782;7.152;2023-02-01T05:13:29;22.80;;;5.10;;
27408;SDS011;20413;50.782;7.152;2023-02-01T05:16:14;20.35;;;4.47;;
27408;SDS011;20413;50.782;7.152;2023-02-01T05:18:40;19.55;;;3.80;;
27408;SDS011;20413;50.782;7.152;2023-02-01T05:21:06;21.05;;;3.83;;
27408;SDS011;20413;50.782;7.152;2023-02-01T05:23:32;19.75;;;4.97;;
27408;SDS011;20413;50.782;7.152;2023-02-01T05:26:18;24.27;;;4.45;;
27408;SDS011;20413;50.782;7.152;2023-02-01T05:28:44;21.70;;;3.85;;
27408;SDS011;20413;50.782;7.152;2023-02-01T05:31:10;24.27;;;4.20;;
27408;SDS011;20413;50.782;7.152;2023-02-01T05:33:36;22.63;;;4.57;;
27408;SDS011;20413;50.782;7.152;2023-02-01T05:36:02;25.40;;;4.70;;
27408;SDS011;20413;50.782;7.152;2023-02-01T05:38:29;27.70;;;4.40;;
27408;SDS011;20413;50.782;7.152;2023-02-01T05:40:55;22.95;;;4.50;;
27408;SDS011;20413;50.782;7.152;2023-02-01T05:43:21;17.33;;;4.82;;
27408;SDS011;20413;50.782;7.152;2023-02-01T05:45:47;18.02;;;3.70;;
27408;SDS011;20413;50.782;7.152;2023-02-01T05:48:13;26.80;;;3.42;;
27408;SDS011;20413;50.782;7.152;2023-02-01T05:50:39;16.83;;;3.50;;
27408;SDS011;20413;50.782;7.152;2023-02-01T05:53:05;16.65;;;3.50;;
27408;SDS011;20413;50.782;7.152;2023-02-01T05:55:31;21.73;;;4.78;;
27408;SDS011;20413;50.782;7.152;2023-02-01T05:57:57;13.98;;;3.63;;
27408;SDS011;20413;50.782;7.152;2023-02-01T06:00:23;20.17;;;3.90;;
27408;SDS011;20413;50.782;7.152;2023-02-01T06:02:50;17.73;;;3.83;;
27408;SDS011;20413;50.782;7.152;2023-02-01T06:05:16;19.70;;;4.03;;
27408;SDS011;20413;50.782;7.152;2023-02-01T06:07:42;14.82;;;3.17;;
27408;SDS011;20413;50.782;7.152;2023-02-01T06:10:08;13.20;;;3.00;;
27408;SDS011;20413;50.782;7.152;2023-02-01T06:12:34;14.73;;;3.17;;
27408;SDS011;20413;50.782;7.152;2023-02-01T06:15:00;14.55;;;2.85;;
27408;SDS011;20413;50.782;7.152;2023-02-01T06:17:26;16.73;;;3.88;;
27408;SDS011;20413;50.782;7.152;2023-02-01T06:19:52;21.55;;;3.50;;
27408;SDS011;20413;50.782;7.152;2023-02-01T06:22:18;18.80;;;3.47;;
27408;SDS011;20413;50.782;7.152;2023-02-01T06:24:46;12.35;;;2.58;;
27408;SDS011;20413;50.782;7.152;2023-02-01T06:27:12;17.55;;;3.78;;
27408;SDS011;20413;50.782;7.152;2023-02-01T06:29:39;18.90;;;3.53;;
27408;SDS011;20413;50.782;7.152;2023-02-01T06:32:05;18.00;;;3.28;;
27408;SDS011;20413;50.782;7.152;2023-02-01T06:34:31;19.10;;;3.20;;
27408;SDS011;20413;50.782;7.152;2023-02-01T06:36:57;17.52;;;3.00;;
27408;SDS011;20413;50.782;7.152;2023-02-01T06:39:23;16.35;;;3.83;;
27408;SDS011;20413;50.782;7.152;2023-02-01T06:41:49;11.13;;;2.88;;
27408;SDS011;20413;50.782;7.152;2023-02-01T06:44:15;14.35;;;2.80;;
27408;SDS011;20413;50.782;7.152;2023-02-01T06:46:42;12.00;;;2.90;;
27408;SDS011;20413;50.782;7.152;2023-02-01T06:49:08;17.17;;;2.95;;
27408;SDS011;20413;50.782;7.152;2023-02-01T06:51:34;16.77;;;3.22;;
27408;SDS011;20413;50.782;7.152;2023-02-01T06:54:00;14.98;;;2.75;;
27408;SDS011;20413;50.782;7.152;2023-02-01T06:56:26;18.15;;;3.80;;
27408;SDS011;20413;50.782;7.152;2023-02-01T06:58:52;16.67;;;3.67;;
27408;SDS011;20413;50.782;7.152;2023-02-01T07:01:19;25.13;;;3.45;;
27408;SDS011;20413;50.782;7.152;2023-02-01T07:03:48;21.27;;;3.75;;
27408;SDS011;20413;50.782;7.152;2023-02-01T07:06:15;13.55;;;3.40;;
27408;SDS011;20413;50.782;7.152;2023-02-01T07:08:41;16.65;;;3.20;;
27408;SDS011;20413;50.782;7.152;2023-02-01T07:11:09;18.85;;;3.40;;
27408;SDS011;20413;50.782;7.152;2023-02-01T07:13:35;17.10;;;3.47;;
27408;SDS011;20413;50.782;7.152;2023-02-01T07:16:02;18.83;;;3.35;;
27408;SDS011;20413;50.782;7.152;2023-02-01T07:18:28;17.98;;;2.65;;
27408;SDS011;20413;50.782;7.152;2023-02-01T07:20:54;19.73;;;3.30;;
27408;SDS011;20413;50.782;7.152;2023-02-01T07:23:21;21.80;;;3.60;;
27408;SDS011;20413;50.782;7.152;2023-02-01T07:25:47;15.43;;;3.30;;
27408;SDS011;20413;50.782;7.152;2023-02-01T07:28:13;20.52;;;3.53;;
27408;SDS011;20413;50.782;7.152;2023-02-01T07:30:39;18.23;;;3.83;;
27408;SDS011;20413;50.782;7.152;2023-02-01T07:33:06;16.83;;;2.90;;
27408;SDS011;20413;50.782;7.152;2023-02-01T07:35:32;17.20;;;3.60;;
27408;SDS011;20413;50.782;7.152;2023-02-01T07:37:58;21.27;;;3.13;;
27408;SDS011;20413;50.782;7.152;2023-02-01T07:40:24;20.25;;;3.45;;
27408;SDS011;20413;50.782;7.152;2023-02-01T07:42:56;23.65;;;2.92;;
27408;SDS011;20413;50.782;7.152;2023-02-01T07:45:22;17.40;;;3.00;;
27408;SDS011;20413;50.782;7.152;2023-02-01T07:47:50;15.90;;;2.80;;
27408;SDS011;20413;50.782;7.152;2023-02-01T07:50:18;14.52;;;3.47;;
27408;SDS011;20413;50.782;7.152;2023-02-01T07:52:44;18.10;;;3.15;;
27408;SDS011;20413;50.782;7.152;2023-02-01T07:55:10;18.63;;;4.43;;
27408;SDS011;20413;50.782;7.152;2023-02-01T07:57:36;24.92;;;3.53;;
27408;SDS011;20413;50.782;7.152;2023-02-01T08:00:02;25.38;;;3.70;;
27408;SDS011;20413;50.782;7.152;2023-02-01T08:02:47;29.98;;;4.05;;
27408;SDS011;20413;50.782;7.152;2023-02-01T08:05:13;18.52;;;3.60;;
27408;SDS011;20413;50.782;7.152;2023-02-01T08:07:39;16.10;;;4.47;;
27408;SDS011;20413;50.782;7.152;2023-02-01T08:10:05;22.75;;;3.55;;
27408;SDS011;20413;50.782;7.152;2023-02-01T08:12:35;21.90;;;3.35;;
27408;SDS011;20413;50.782;7.152;2023-02-01T08:15:02;20.30;;;3.75;;
27408;SDS011;20413;50.782;7.152;2023-02-01T08:17:28;20.10;;;3.17;;
27408;SDS011;20413;50.782;7.152;2023-02-01T08:19:54;22.88;;;4.03;;
27408;SDS011;20413;50.782;7.152;2023-02-01T08:22:20;17.08;;;3.55;;
27408;SDS011;20413;50.782;7.152;2023-02-01T08:24:49;16.38;;;3.53;;
27408;SDS011;20413;50.782;7.152;2023-02-01T08:27:15;17.83;;;3.60;;
27408;SDS011;20413;50.782;7.152;2023-02-01T08:29:41;20.50;;;3.88;;
27408;SDS011;20413;50.782;7.152;2023-02-01T08:32:07;19.83;;;4.22;;
27408;SDS011;20413;50.782;7.152;2023-02-01T08:34:33;15.38;;;3.30;;
27408;SDS011;20413;50.782;7.152;2023-02-01T08:36:59;16.48;;;3.30;;
27408;SDS011;20413;50.782;7.152;2023-02-01T08:39:25;17.48;;;3.25;;
27408;SDS011;20413;50.782;7.152;2023-02-01T08:41:51;18.08;;;4.18;;
27408;SDS011;20413;50.782;7.152;2023-02-01T08:44:36;19.05;;;4.35;;
27408;SDS011;20413;50.782;7.152;2023-02-01T08:47:03;21.40;;;3.72;;
27408;SDS011;20413;50.782;7.152;2023-02-01T08:49:29;16.70;;;3.35;;
27408;SDS011;20413;50.782;7.152;2023-02-01T08:51:55;14.95;;;3.58;;
27408;SDS011;20413;50.782;7.152;2023-02-01T08:54:21;16.58;;;3.55;;
27408;SDS011;20413;50.782;7.152;2023-02-01T08:56:47;13.80;;;3.45;;
27408;SDS011;20413;50.782;7.152;2023-02-01T08:59:13;14.82;;;3.65;;
27408;SDS011;20413;50.782;7.152;2023-02-01T09:01:39;19.73;;;3.95;;
27408;SDS011;20413;50.782;7.152;2023-02-01T09:04:08;17.83;;;3.72;;
27408;SDS011;20413;50.782;7.152;2023-02-01T09:06:34;22.63;;;3.33;;
27408;SDS011;20413;50.782;7.152;2023-02-01T09:09:00;20.50;;;3.97;;
27408;SDS011;20413;50.782;7.152;2023-02-01T09:11:26;18.88;;;3.38;;
27408;SDS011;20413;50.782;7.152;2023-02-01T09:13:52;20.95;;;3.63;;
27408;SDS011;20413;50.782;7.152;2023-02-01T09:16:18;18.30;;;3.58;;
27408;SDS011;20413;50.782;7.152;2023-02-01T09:18:44;11.55;;;3.10;;
27408;SDS011;20413;50.782;7.152;2023-02-01T09:21:11;14.18;;;3.30;;
27408;SDS011;20413;50.782;7.152;2023-02-01T09:23:37;18.77;;;2.83;;
27408;SDS011;20413;50.782;7.152;2023-02-01T09:26:03;20.50;;;3.58;;
27408;SDS011;20413;50.782;7.152;2023-02-01T09:28:30;12.57;;;2.83;;
27408;SDS011;20413;50.782;7.152;2023-02-01T09:30:56;21.38;;;3.00;;
27408;SDS011;20413;50.782;7.152;2023-02-01T09:33:23;17.75;;;3.25;;
27408;SDS011;20413;50.782;7.152;2023-02-01T09:35:49;14.68;;;2.55;;
27408;SDS011;20413;50.782;7.152;2023-02-01T09:38:15;17.88;;;3.00;;
27408;SDS011;20413;50.782;7.152;2023-02-01T09:40:41;17.13;;;3.15;;
27408;SDS011;20413;50.782;7.152;2023-02-01T09:46:16;16.92;;;3.40;;
27408;SDS011;20413;50.782;7.152;2023-02-01T09:48:43;14.50;;;2.97;;
27408;SDS011;20413;50.782;7.152;2023-02-01T09:51:13;14.63;;;2.67;;
27408;SDS011;20413;50.782;7.152;2023-02-01T09:53:41;26.00;;;3.42;;
27408;SDS011;20413;50.782;7.152;2023-02-01T09:56:15;20.17;;;3.30;;
27408;SDS011;20413;50.782;7.152;2023-02-01T09:58:47;19.40;;;3.33;;
27408;SDS011;20413;50.782;7.152;2023-02-01T10:01:18;22.05;;;4.13;;
27408;SDS011;20413;50.782;7.152;2023-02-01T10:03:45;15.48;;;2.78;;
27408;SDS011;20413;50.782;7.152;2023-02-01T10:17:20;18.95;;;3.00;;
27408;SDS011;20413;50.782;7.152;2023-02-01T10:22:40;16.85;;;3.28;;
27408;SDS011;20413;50.782;7.152;2023-02-01T10:25:11;14.45;;;2.53;;
27408;SDS011;20413;50.782;7.152;2023-02-01T10:27:39;22.52;;;3.83;;
27408;SDS011;20413;50.782;7.152;2023-02-01T10:30:13;15.27;;;3.20;;
27408;SDS011;20413;50.782;7.152;2023-02-01T10:32:40;13.52;;;2.88;;
27408;SDS011;20413;50.782;7.152;2023-02-01T10:35:14;15.60;;;2.40;;
27408;SDS011;20413;50.782;7.152;2023-02-01T10:37:41;17.02;;;2.58;;
27408;SDS011;20413;50.782;7.152;2023-02-01T10:40:19;14.77;;;2.63;;
27408;SDS011;20413;50.782;7.152;2023-02-01T10:42:46;17.25;;;2.20;;
27408;SDS011;20413;50.782;7.152;2023-02-01T10:45:14;13.25;;;2.45;;
27408;SDS011;20413;50.782;7.152;2023-02-01T10:47:41;19.52;;;2.55;;
27408;SDS011;20413;50.782;7.152;2023-02-01T10:52:45;13.27;;;2.25;;
27408;SDS011;20413;50.782;7.152;2023-02-01T10:57:58;14.65;;;3.65;;
27408;SDS011;20413;50.782;7.152;2023-02-01T11:00:24;18.00;;;3.17;;
27408;SDS011;20413;50.782;7.152;2023-02-01T11:02:50;19.83;;;3.63;;
27408;SDS011;20413;50.782;7.152;2023-02-01T11:05:17;20.65;;;3.22;;
27408;SDS011;20413;50.782;7.152;2023-02-01T11:07:50;19.30;;;2.75;;
27408;SDS011;20413;50.782;7.152;2023-02-01T11:13:05;16.77;;;2.63;;
27408;SDS011;20413;50.782;7.152;2023-02-01T11:15:37;10.70;;;2.38;;
27408;SDS011;20413;50.782;7.152;2023-02-01T11:18:17;14.60;;;2.95;;
27408;SDS011;20413;50.782;7.152;2023-02-01T11:20:43;14.13;;;3.15;;
27408;SDS011;20413;50.782;7.152;2023-02-01T11:23:15;15.68;;;3.28;;
27408;SDS011;20413;50.782;7.152;2023-02-01T11:25:51;15.00;;;3.08;;
27408;SDS011;20413;50.782;7.152;2023-02-01T11:28:17;14.65;;;2.47;;
27408;SDS011;20413;50.782;7.152;2023-02-01T11:30:45;15.93;;;2.65;;
27408;SDS011;20413;50.782;7.152;2023-02-01T11:33:14;12.70;;;2.83;;
27408;SDS011;20413;50.782;7.152;2023-02-01T11:35:41;22.02;;;2.95;;
27408;SDS011;20413;50.782;7.152;2023-02-01T11:38:19;13.23;;;2.63;;
27408;SDS011;20413;50.782;7.152;2023-02-01T11:40:45;17.73;;;2.40;;
27408;SDS011;20413;50.782;7.152;2023-02-01T11:43:27;14.98;;;2.65;;
27408;SDS011;20413;50.782;7.152;2023-02-01T11:45:55;15.43;;;2.47;;
27408;SDS011;20413;50.782;7.152;2023-02-01T11:48:21;12.48;;;2.83;;
27408;SDS011;20413;50.782;7.152;2023-02-01T11:50:51;11.32;;;2.53;;
27408;SDS011;20413;50.782;7.152;2023-02-01T11:55:52;12.00;;;2.60;;
27408;SDS011;20413;50.782;7.152;2023-02-01T11:58:46;12.80;;;2.25;;
27408;SDS011;20413;50.782;7.152;2023-02-01T12:06:29;11.10;;;2.25;;
27408;SDS011;20413;50.782;7.152;2023-02-01T12:11:35;13.75;;;2.42;;
27408;SDS011;20413;50.782;7.152;2023-02-01T12:22:04;12.43;;;2.72;;
27408;SDS011;20413;50.782;7.152;2023-02-01T12:24:37;18.40;;;2.75;;
27408;SDS011;20413;50.782;7.152;2023-02-01T12:29:45;11.65;;;2.47;;
27408;SDS011;20413;50.782;7.152;2023-02-01T12:32:17;9.18;;;2.13;;
27408;SDS011;20413;50.782;7.152;2023-02-01T12:34:51;19.05;;;3.03;;
27408;SDS011;20413;50.782;7.152;2023-02-01T12:42:24;11.02;;;2.10;;
27408;SDS011;20413;50.782;7.152;2023-02-01T12:44:53;11.55;;;2.35;;
27408;SDS011;20413;50.782;7.152;2023-02-01T12:47:26;17.58;;;2.60;;
27408;SDS011;20413;50.782;7.152;2023-02-01T12:52:27;14.20;;;2.63;;
27408;SDS011;20413;50.782;7.152;2023-02-01T12:55:04;12.68;;;2.15;;
27408;SDS011;20413;50.782;7.152;2023-02-01T12:57:33;9.80;;;2.03;;
27408;SDS011;20413;50.782;7.152;2023-02-01T13:02:35;10.43;;;2.25;;
27408;SDS011;20413;50.782;7.152;2023-02-01T13:05:12;13.45;;;3.17;;
27408;SDS011;20413;50.782;7.152;2023-02-01T13:07:43;15.93;;;2.17;;
27408;SDS011;20413;50.782;7.152;2023-02-01T13:10:32;14.27;;;3.05;;
27408;SDS011;20413;50.782;7.152;2023-02-01T13:13:02;12.45;;;2.33;;
27408;SDS011;20413;50.782;7.152;2023-02-01T13:15:40;10.25;;;2.47;;
27408;SDS011;20413;50.782;7.152;2023-02-01T13:18:09;16.27;;;3.20;;
27408;SDS011;20413;50.782;7.152;2023-02-01T13:23:13;12.15;;;2.50;;
27408;SDS011;20413;50.782;7.152;2023-02-01T13:25:47;16.02;;;2.45;;
27408;SDS011;20413;50.782;7.152;2023-02-01T13:28:28;11.45;;;2.08;;
27408;SDS011;20413;50.782;7.152;2023-02-01T13:31:05;13.98;;;2.58;;
27408;SDS011;20413;50.782;7.152;2023-02-01T13:41:05;11.50;;;2.35;;
27408;SDS011;20413;50.782;7.152;2023-02-01T13:43:33;5.25;;;2.33;;
27408;SDS011;20413;50.782;7.152;2023-02-01T13:46:04;12.15;;;2.65;;
27408;SDS011;20413;50.782;7.152;2023-02-01T13:51:32;10.73;;;1.95;;
27408;SDS011;20413;50.782;7.152;2023-02-01T13:53:58;14.35;;;3.30;;
27408;SDS011;20413;50.782;7.152;2023-02-01T13:56:24;7.45;;;2.10;;
27408;SDS011;20413;50.782;7.152;2023-02-01T13:58:51;9.27;;;2.40;;
27408;SDS011;20413;50.782;7.152;2023-02-01T14:03:47;11.93;;;2.63;;
27408;SDS011;20413;50.782;7.152;2023-02-01T14:06:15;16.23;;;2.40;;
27408;SDS011;20413;50.782;7.152;2023-02-01T14:08:42;9.82;;;2.40;;
27408;SDS011;20413;50.782;7.152;2023-02-01T14:16:39;20.58;;;2.80;;
27408;SDS011;20413;50.782;7.152;2023-02-01T14:19:07;13.85;;;2.42;;
27408;SDS011;20413;50.782;7.152;2023-02-01T14:21:35;15.80;;;2.55;;
27408;SDS011;20413;50.782;7.152;2023-02-01T14:26:42;11.73;;;2.55;;
27408;SDS011;20413;50.782;7.152;2023-02-01T14:29:19;12.00;;;2.33;;
27408;SDS011;20413;50.782;7.152;2023-02-01T14:34:18;10.80;;;2.13;;
27408;SDS011;20413;50.782;7.152;2023-02-01T14:36:56;16.73;;;2.60;;
27408;SDS011;20413;50.782;7.152;2023-02-01T14:39:25;9.70;;;2.55;;
27408;SDS011;20413;50.782;7.152;2023-02-01T14:41:52;19.15;;;2.65;;
27408;SDS011;20413;50.782;7.152;2023-02-01T14:44:24;11.00;;;2.42;;
27408;SDS011;20413;50.782;7.152;2023-02-01T14:47:10;19.05;;;2.30;;
27408;SDS011;20413;50.782;7.152;2023-02-01T14:50:07;12.32;;;2.40;;
27408;SDS011;20413;50.782;7.152;2023-02-01T14:52:40;15.57;;;2.38;;
27408;SDS011;20413;50.782;7.152;2023-02-01T14:55:14;11.90;;;2.78;;
27408;SDS011;20413;50.782;7.152;2023-02-01T14:57:41;11.00;;;2.10;;
27408;SDS011;20413;50.782;7.152;2023-02-01T15:00:16;17.48;;;2.15;;
27408;SDS011;20413;50.782;7.152;2023-02-01T15:02:42;10.30;;;2.08;;
27408;SDS011;20413;50.782;7.152;2023-02-01T15:08:05;16.73;;;2.90;;
27408;SDS011;20413;50.782;7.152;2023-02-01T15:10:32;18.80;;;2.72;;
27408;SDS011;20413;50.782;7.152;2023-02-01T15:12:59;10.50;;;2.25;;
27408;SDS011;20413;50.782;7.152;2023-02-01T15:15:25;14.63;;;2.60;;
27408;SDS011;20413;50.782;7.152;2023-02-01T15:17:55;9.50;;;1.92;;
27408;SDS011;20413;50.782;7.152;2023-02-01T15:20:28;6.47;;;2.13;;
27408;SDS011;20413;50.782;7.152;2023-02-01T15:25:25;10.23;;;1.85;;
27408;SDS011;20413;50.782;7.152;2023-02-01T15:27:52;16.50;;;2.25;;
27408;SDS011;20413;50.782;7.152;2023-02-01T15:30:22;10.98;;;2.00;;
27408;SDS011;20413;50.782;7.152;2023-02-01T15:32:48;13.13;;;2.22;;
27408;SDS011;20413;50.782;7.152;2023-02-01T15:43:31;12.30;;;1.83;;
27408;SDS011;20413;50.782;7.152;2023-02-01T15:45:58;12.07;;;2.65;;
27408;SDS011;20413;50.782;7.152;2023-02-01T15:48:25;13.55;;;2.40;;
27408;SDS011;20413;50.782;7.152;2023-02-01T15:50:52;15.85;;;4.80;;
27408;SDS011;20413;50.782;7.152;2023-02-01T15:53:20;9.70;;;1.83;;
27408;SDS011;20413;50.782;7.152;2023-02-01T15:55:47;11.70;;;2.05;;
27408;SDS011;20413;50.782;7.152;2023-02-01T15:58:18;11.90;;;1.50;;
27408;SDS011;20413;50.782;7.152;2023-02-01T16:00:46;11.73;;;1.75;;
27408;SDS011;20413;50.782;7.152;2023-02-01T16:05:58;12.93;;;1.85;;
27408;SDS011;20413;50.782;7.152;2023-02-01T16:08:25;8.70;;;2.15;;
27408;SDS011;20413;50.782;7.152;2023-02-01T16:10:53;10.18;;;2.33;;
27408;SDS011;20413;50.782;7.152;2023-02-01T16:13:19;12.35;;;2.13;;
27408;SDS011;20413;50.782;7.152;2023-02-01T16:15:46;13.25;;;1.98;;
27408;SDS011;20413;50.782;7.152;2023-02-01T16:18:12;8.40;;;1.58;;
27408;SDS011;20413;50.782;7.152;2023-02-01T16:20:39;10.07;;;2.10;;
27408;SDS011;20413;50.782;7.152;2023-02-01T16:23:06;10.95;;;2.03;;
27408;SDS011;20413;50.782;7.152;2023-02-01T16:25:32;12.48;;;2.55;;
27408;SDS011;20413;50.782;7.152;2023-02-01T16:27:58;9.23;;;1.90;;
27408;SDS011;20413;50.782;7.152;2023-02-01T16:30:24;10.57;;;2.35;;
27408;SDS011;20413;50.782;7.152;2023-02-01T16:32:54;11.85;;;2.13;;
27408;SDS011;20413;50.782;7.152;2023-02-01T16:35:22;7.85;;;2.38;;
27408;SDS011;20413;50.782;7.152;2023-02-01T16:37:49;16.52;;;2.88;;